sensor_id;sensor_type;location;lat;lon;timestamp;temperature;humidity
51637;DHT22;37713;53.254;6.460;2023-07-09T00:00:49;21.10;99.90
51637;DHT22;37713;53.254;6.460;2023-07-09T00:03:16;21.00;99.90
51637;DHT22;37713;53.254;6.460;2023-07-09T00:05:43;21.00;99.90
51637;DHT22;37713;53.254;6.460;2023-07-09T00:08:31;21.00;99.90
51637;DHT22;37713;53.254;6.460;2023-07-09T00:10:57;21.00;99.90
51637;DHT22;37713;53.254;6.460;2023-07-09T00:13:25;20.90;99.90
51637;DHT22;37713;53.254;6.460;2023-07-09T00:15:51;20.90;99.90
51637;DHT22;37713;53.254;6.460;2023-07-09T00:18:17;20.90;99.90
51637;DHT22;37713;53.254;6.460;2023-07-09T00:20:43;20.90;99.90
51637;DHT22;37713;53.254;6.460;2023-07-09T00:23:10;20.80;99.90
51637;DHT22;37713;53.254;6.460;2023-07-09T00:25:43;20.80;99.90
51637;DHT22;37713;53.254;6.460;2023-07-09T00:28:14;20.80;99.90
51637;DHT22;37713;53.254;6.460;2023-07-09T00:30:40;20.70;99.90
51637;DHT22;37713;53.254;6.460;2023-07-09T00:33:11;20.70;99.90
51637;DHT22;37713;53.254;6.460;2023-07-09T00:35:41;20.70;99.90
51637;DHT22;37713;53.254;6.460;2023-07-09T00:38:13;20.70;99.90
51637;DHT22;37713;53.254;6.460;2023-07-09T00:40:58;20.60;99.90
51637;DHT22;37713;53.254;6.460;2023-07-09T00:43:35;20.60;99.90
51637;DHT22;37713;53.254;6.460;2023-07-09T00:48:42;20.60;99.90
51637;DHT22;37713;53.254;6.460;2023-07-09T00:51:20;20.50;99.90
51637;DHT22;37713;53.254;6.460;2023-07-09T00:53:49;20.50;99.90
51637;DHT22;37713;53.254;6.460;2023-07-09T00:56:27;20.50;99.90
51637;DHT22;37713;53.254;6.460;2023-07-09T00:58:55;20.50;99.90
51637;DHT22;37713;53.254;6.460;2023-07-09T01:01:22;20.50;99.90
51637;DHT22;37713;53.254;6.460;2023-07-09T01:03:55;20.40;99.90
51637;DHT22;37713;53.254;6.460;2023-07-09T01:06:41;20.40;99.90
51637;DHT22;37713;53.254;6.460;2023-07-09T01:09:08;20.40;99.90
51637;DHT22;37713;53.254;6.460;2023-07-09T01:11:34;20.40;99.90
51637;DHT22;37713;53.254;6.460;2023-07-09T01:14:06;20.40;99.90
51637;DHT22;37713;53.254;6.460;2023-07-09T01:16:37;20.30;99.90
51637;DHT22;37713;53.254;6.460;2023-07-09T01:19:05;20.30;99.90
51637;DHT22;37713;53.254;6.460;2023-07-09T01:21:31;20.30;99.90
51637;DHT22;37713;53.254;6.460;2023-07-09T01:23:58;20.20;99.90
51637;DHT22;37713;53.254;6.460;2023-07-09T01:26:26;20.30;99.90
51637;DHT22;37713;53.254;6.460;2023-07-09T01:28:54;20.20;99.90
51637;DHT22;37713;53.254;6.460;2023-07-09T01:31:20;20.20;99.90
51637;DHT22;37713;53.254;6.460;2023-07-09T01:33:46;20.20;99.90
51637;DHT22;37713;53.254;6.460;2023-07-09T01:36:19;20.20;99.90
51637;DHT22;37713;53.254;6.460;2023-07-09T01:38:49;20.20;99.90
51637;DHT22;37713;53.254;6.460;2023-07-09T01:41:15;20.10;99.90
51637;DHT22;37713;53.254;6.460;2023-07-09T01:43:43;20.10;99.90
51637;DHT22;37713;53.254;6.460;2023-07-09T01:46:10;20.10;99.90
51637;DHT22;37713;53.254;6.460;2023-07-09T01:48:38;20.10;99.90
51637;DHT22;37713;53.254;6.460;2023-07-09T01:51:14;20.00;99.90
51637;DHT22;37713;53.254;6.460;2023-07-09T01:53:42;20.10;99.90
51637;DHT22;37713;53.254;6.460;2023-07-09T01:56:10;20.10;99.90
51637;DHT22;37713;53.254;6.460;2023-07-09T01:58:36;20.10;99.90
51637;DHT22;37713;53.254;6.460;2023-07-09T02:01:07;20.00;99.90
51637;DHT22;37713;53.254;6.460;2023-07-09T02:03:33;20.00;99.90
51637;DHT22;37713;53.254;6.460;2023-07-09T02:05:59;20.00;99.90
51637;DHT22;37713;53.254;6.460;2023-07-09T02:08:25;20.00;99.90
51637;DHT22;37713;53.254;6.460;2023-07-09T02:10:51;20.00;99.90
51637;DHT22;37713;53.254;6.460;2023-07-09T02:13:17;19.90;99.90
51637;DHT22;37713;53.254;6.460;2023-07-09T02:15:43;19.90;99.90
51637;DHT22;37713;53.254;6.460;2023-07-09T02:18:10;19.90;99.90
51637;DHT22;37713;53.254;6.460;2023-07-09T02:20:36;19.90;99.90
51637;DHT22;37713;53.254;6.460;2023-07-09T02:23:03;19.80;99.90
51637;DHT22;37713;53.254;6.460;2023-07-09T02:25:29;19.80;99.90
51637;DHT22;37713;53.254;6.460;2023-07-09T02:27:54;19.80;99.90
51637;DHT22;37713;53.254;6.460;2023-07-09T02:30:20;19.80;99.90
51637;DHT22;37713;53.254;6.460;2023-07-09T02:32:46;19.80;99.90
51637;DHT22;37713;53.254;6.460;2023-07-09T02:35:12;19.70;99.90
51637;DHT22;37713;53.254;6.460;2023-07-09T02:37:38;19.70;99.90
51637;DHT22;37713;53.254;6.460;2023-07-09T02:40:05;19.70;99.90
51637;DHT22;37713;53.254;6.460;2023-07-09T02:42:31;19.70;99.90
51637;DHT22;37713;53.254;6.460;2023-07-09T02:44:56;19.70;99.90
51637;DHT22;37713;53.254;6.460;2023-07-09T02:47:22;19.70;99.90
51637;DHT22;37713;53.254;6.460;2023-07-09T02:49:48;19.70;99.90
51637;DHT22;37713;53.254;6.460;2023-07-09T02:52:14;19.70;99.90
51637;DHT22;37713;53.254;6.460;2023-07-09T02:54:40;19.70;99.90
51637;DHT22;37713;53.254;6.460;2023-07-09T02:57:06;19.70;99.90
51637;DHT22;37713;53.254;6.460;2023-07-09T02:59:32;19.70;99.90
51637;DHT22;37713;53.254;6.460;2023-07-09T03:01:59;19.70;99.90
51637;DHT22;37713;53.254;6.460;2023-07-09T03:04:25;19.70;99.90
51637;DHT22;37713;53.254;6.460;2023-07-09T03:06:51;19.60;99.90
51637;DHT22;37713;53.254;6.460;2023-07-09T03:09:18;19.60;99.90
51637;DHT22;37713;53.254;6.460;2023-07-09T03:11:44;19.60;99.90
51637;DHT22;37713;53.254;6.460;2023-07-09T03:14:10;19.60;99.90
51637;DHT22;37713;53.254;6.460;2023-07-09T03:16:36;19.60;99.90
51637;DHT22;37713;53.254;6.460;2023-07-09T03:19:02;19.60;99.90
51637;DHT22;37713;53.254;6.460;2023-07-09T03:21:29;19.60;99.90
51637;DHT22;37713;53.254;6.460;2023-07-09T03:23:56;19.60;99.90
51637;DHT22;37713;53.254;6.460;2023-07-09T03:26:22;19.60;99.90
51637;DHT22;37713;53.254;6.460;2023-07-09T03:28:49;19.60;99.90
51637;DHT22;37713;53.254;6.460;2023-07-09T03:31:15;19.70;99.90
51637;DHT22;37713;53.254;6.460;2023-07-09T03:33:40;19.70;99.90
51637;DHT22;37713;53.254;6.460;2023-07-09T03:36:06;19.70;99.90
51637;DHT22;37713;53.254;6.460;2023-07-09T03:38:32;19.70;99.90
51637;DHT22;37713;53.254;6.460;2023-07-09T03:40:58;19.80;99.90
51637;DHT22;37713;53.254;6.460;2023-07-09T03:43:24;19.80;99.90
51637;DHT22;37713;53.254;6.460;2023-07-09T03:45:51;19.80;99.90
51637;DHT22;37713;53.254;6.460;2023-07-09T03:48:18;19.80;99.90
51637;DHT22;37713;53.254;6.460;2023-07-09T03:50:46;19.90;99.90
51637;DHT22;37713;53.254;6.460;2023-07-09T03:53:12;19.90;99.90
51637;DHT22;37713;53.254;6.460;2023-07-09T03:55:38;19.90;99.90
51637;DHT22;37713;53.254;6.460;2023-07-09T03:58:05;19.90;99.90
51637;DHT22;37713;53.254;6.460;2023-07-09T04:00:32;19.90;99.90
51637;DHT22;37713;53.254;6.460;2023-07-09T04:02:58;20.00;99.90
51637;DHT22;37713;53.254;6.460;2023-07-09T04:05:25;20.00;99.90
51637;DHT22;37713;53.254;6.460;2023-07-09T04:07:52;20.00;99.90
51637;DHT22;37713;53.254;6.460;2023-07-09T04:10:18;20.10;99.90
51637;DHT22;37713;53.254;6.460;2023-07-09T04:12:44;20.10;99.90
51637;DHT22;37713;53.254;6.460;2023-07-09T04:15:11;20.10;99.90
51637;DHT22;37713;53.254;6.460;2023-07-09T04:17:41;20.10;99.90
51637;DHT22;37713;53.254;6.460;2023-07-09T04:20:08;20.20;99.90
51637;DHT22;37713;53.254;6.460;2023-07-09T04:22:36;20.30;99.90
51637;DHT22;37713;53.254;6.460;2023-07-09T04:25:03;20.30;99.90
51637;DHT22;37713;53.254;6.460;2023-07-09T04:27:30;20.30;99.90
51637;DHT22;37713;53.254;6.460;2023-07-09T04:29:56;20.30;99.90
51637;DHT22;37713;53.254;6.460;2023-07-09T04:32:22;20.40;99.90
51637;DHT22;37713;53.254;6.460;2023-07-09T04:34:49;20.40;99.90
51637;DHT22;37713;53.254;6.460;2023-07-09T04:37:15;20.50;99.90
51637;DHT22;37713;53.254;6.460;2023-07-09T04:39:44;20.50;99.90
51637;DHT22;37713;53.254;6.460;2023-07-09T04:42:15;20.50;99.90
51637;DHT22;37713;53.254;6.460;2023-07-09T04:44:41;20.60;99.90
51637;DHT22;37713;53.254;6.460;2023-07-09T04:47:07;20.70;99.90
51637;DHT22;37713;53.254;6.460;2023-07-09T04:49:34;20.70;99.90
51637;DHT22;37713;53.254;6.460;2023-07-09T04:52:00;20.80;99.90
51637;DHT22;37713;53.254;6.460;2023-07-09T04:54:27;20.90;99.90
51637;DHT22;37713;53.254;6.460;2023-07-09T04:56:53;20.90;99.90
51637;DHT22;37713;53.254;6.460;2023-07-09T04:59:19;21.00;99.90
51637;DHT22;37713;53.254;6.460;2023-07-09T05:01:45;21.00;99.90
51637;DHT22;37713;53.254;6.460;2023-07-09T05:04:11;21.10;99.90
51637;DHT22;37713;53.254;6.460;2023-07-09T05:06:36;21.10;99.90
51637;DHT22;37713;53.254;6.460;2023-07-09T05:09:02;21.20;99.90
51637;DHT22;37713;53.254;6.460;2023-07-09T05:11:28;21.20;99.90
51637;DHT22;37713;53.254;6.460;2023-07-09T05:13:54;21.30;99.90
51637;DHT22;37713;53.254;6.460;2023-07-09T05:16:20;21.30;99.90
51637;DHT22;37713;53.254;6.460;2023-07-09T05:18:46;21.40;99.90
51637;DHT22;37713;53.254;6.460;2023-07-09T05:21:12;21.50;99.90
51637;DHT22;37713;53.254;6.460;2023-07-09T05:23:38;21.60;99.90
51637;DHT22;37713;53.254;6.460;2023-07-09T05:26:04;21.70;99.90
51637;DHT22;37713;53.254;6.460;2023-07-09T05:28:30;21.80;99.90
51637;DHT22;37713;53.254;6.460;2023-07-09T05:30:58;21.80;99.90
51637;DHT22;37713;53.254;6.460;2023-07-09T05:33:24;21.90;99.90
51637;DHT22;37713;53.254;6.460;2023-07-09T05:35:50;22.00;99.90
51637;DHT22;37713;53.254;6.460;2023-07-09T05:38:16;22.10;99.90
51637;DHT22;37713;53.254;6.460;2023-07-09T05:40:42;22.10;99.90
51637;DHT22;37713;53.254;6.460;2023-07-09T05:43:09;22.20;99.90
51637;DHT22;37713;53.254;6.460;2023-07-09T05:45:36;22.30;99.90
51637;DHT22;37713;53.254;6.460;2023-07-09T05:48:04;22.30;99.90
51637;DHT22;37713;53.254;6.460;2023-07-09T05:50:32;22.40;99.90
51637;DHT22;37713;53.254;6.460;2023-07-09T05:52:58;22.50;99.90
51637;DHT22;37713;53.254;6.460;2023-07-09T05:55:24;22.50;99.90
51637;DHT22;37713;53.254;6.460;2023-07-09T05:57:50;22.60;99.90
51637;DHT22;37713;53.254;6.460;2023-07-09T06:00:16;22.60;99.90
51637;DHT22;37713;53.254;6.460;2023-07-09T06:02:42;22.70;99.90
51637;DHT22;37713;53.254;6.460;2023-07-09T06:05:08;22.80;99.90
51637;DHT22;37713;53.254;6.460;2023-07-09T06:07:36;22.80;99.90
51637;DHT22;37713;53.254;6.460;2023-07-09T06:10:06;22.80;99.90
51637;DHT22;37713;53.254;6.460;2023-07-09T06:12:33;22.90;99.90
51637;DHT22;37713;53.254;6.460;2023-07-09T06:14:59;22.90;99.90
51637;DHT22;37713;53.254;6.460;2023-07-09T06:17:25;23.00;99.90
51637;DHT22;37713;53.254;6.460;2023-07-09T06:19:51;23.00;99.90
51637;DHT22;37713;53.254;6.460;2023-07-09T06:22:16;23.00;99.90
51637;DHT22;37713;53.254;6.460;2023-07-09T06:24:44;23.00;99.90
51637;DHT22;37713;53.254;6.460;2023-07-09T06:27:10;23.10;99.90
51637;DHT22;37713;53.254;6.460;2023-07-09T06:29:36;23.20;99.90
51637;DHT22;37713;53.254;6.460;2023-07-09T06:32:02;23.30;99.90
51637;DHT22;37713;53.254;6.460;2023-07-09T06:34:28;23.50;99.90
51637;DHT22;37713;53.254;6.460;2023-07-09T06:36:55;23.70;99.90
51637;DHT22;37713;53.254;6.460;2023-07-09T06:39:21;24.20;99.90
51637;DHT22;37713;53.254;6.460;2023-07-09T06:41:47;25.00;99.90
51637;DHT22;37713;53.254;6.460;2023-07-09T06:44:13;25.60;99.90
51637;DHT22;37713;53.254;6.460;2023-07-09T06:46:39;26.40;99.90
51637;DHT22;37713;53.254;6.460;2023-07-09T06:49:05;27.00;99.90
51637;DHT22;37713;53.254;6.460;2023-07-09T06:51:32;27.60;99.90
51637;DHT22;37713;53.254;6.460;2023-07-09T06:53:58;27.80;99.90
51637;DHT22;37713;53.254;6.460;2023-07-09T06:56:24;27.80;99.90
51637;DHT22;37713;53.254;6.460;2023-07-09T06:58:50;27.40;99.90
51637;DHT22;37713;53.254;6.460;2023-07-09T07:01:16;27.30;99.90
51637;DHT22;37713;53.254;6.460;2023-07-09T07:03:41;27.50;99.90
51637;DHT22;37713;53.254;6.460;2023-07-09T07:06:07;27.90;99.90
51637;DHT22;37713;53.254;6.460;2023-07-09T07:08:34;28.40;99.90
51637;DHT22;37713;53.254;6.460;2023-07-09T07:11:02;29.00;99.90
51637;DHT22;37713;53.254;6.460;2023-07-09T07:13:33;29.40;99.90
51637;DHT22;37713;53.254;6.460;2023-07-09T07:16:01;29.80;99.90
51637;DHT22;37713;53.254;6.460;2023-07-09T07:18:28;30.00;99.90
51637;DHT22;37713;53.254;6.460;2023-07-09T07:20:54;30.30;99.90
51637;DHT22;37713;53.254;6.460;2023-07-09T07:23:20;30.60;99.90
51637;DHT22;37713;53.254;6.460;2023-07-09T07:25:47;30.80;99.90
51637;DHT22;37713;53.254;6.460;2023-07-09T07:28:13;31.10;99.90
51637;DHT22;37713;53.254;6.460;2023-07-09T07:30:39;31.40;99.90
51637;DHT22;37713;53.254;6.460;2023-07-09T07:33:05;31.40;99.90
51637;DHT22;37713;53.254;6.460;2023-07-09T07:35:31;31.40;99.90
51637;DHT22;37713;53.254;6.460;2023-07-09T07:37:57;31.00;99.90
51637;DHT22;37713;53.254;6.460;2023-07-09T07:40:23;30.60;99.90
51637;DHT22;37713;53.254;6.460;2023-07-09T07:42:49;30.20;99.90
51637;DHT22;37713;53.254;6.460;2023-07-09T07:45:15;29.80;99.90
51637;DHT22;37713;53.254;6.460;2023-07-09T07:47:41;29.40;99.90
51637;DHT22;37713;53.254;6.460;2023-07-09T07:50:08;29.20;99.90
51637;DHT22;37713;53.254;6.460;2023-07-09T07:52:34;29.10;99.90
51637;DHT22;37713;53.254;6.460;2023-07-09T07:55:07;29.30;99.90
51637;DHT22;37713;53.254;6.460;2023-07-09T07:57:33;29.70;99.90
51637;DHT22;37713;53.254;6.460;2023-07-09T07:59:59;30.20;99.90
51637;DHT22;37713;53.254;6.460;2023-07-09T08:02:26;30.20;99.90
51637;DHT22;37713;53.254;6.460;2023-07-09T08:04:52;30.30;99.90
51637;DHT22;37713;53.254;6.460;2023-07-09T08:07:19;30.20;99.90
51637;DHT22;37713;53.254;6.460;2023-07-09T08:09:46;30.20;99.90
51637;DHT22;37713;53.254;6.460;2023-07-09T08:12:14;30.30;99.90
51637;DHT22;37713;53.254;6.460;2023-07-09T08:14:42;30.40;99.90
51637;DHT22;37713;53.254;6.460;2023-07-09T08:17:08;30.50;99.90
51637;DHT22;37713;53.254;6.460;2023-07-09T08:19:53;30.40;99.90
51637;DHT22;37713;53.254;6.460;2023-07-09T08:22:20;30.30;99.90
51637;DHT22;37713;53.254;6.460;2023-07-09T08:24:47;30.20;99.90
51637;DHT22;37713;53.254;6.460;2023-07-09T08:27:13;30.20;99.90
51637;DHT22;37713;53.254;6.460;2023-07-09T08:29:39;30.30;99.90
51637;DHT22;37713;53.254;6.460;2023-07-09T08:32:07;30.40;99.90
51637;DHT22;37713;53.254;6.460;2023-07-09T08:34:34;30.40;99.90
51637;DHT22;37713;53.254;6.460;2023-07-09T08:37:00;30.50;99.90
51637;DHT22;37713;53.254;6.460;2023-07-09T08:39:26;30.40;99.90
51637;DHT22;37713;53.254;6.460;2023-07-09T08:47:17;30.90;99.90
51637;DHT22;37713;53.254;6.460;2023-07-09T08:49:50;31.00;99.90
51637;DHT22;37713;53.254;6.460;2023-07-09T08:54:52;31.20;99.90
51637;DHT22;37713;53.254;6.460;2023-07-09T08:57:42;31.20;99.90
51637;DHT22;37713;53.254;6.460;2023-07-09T09:06:12;31.20;99.90
51637;DHT22;37713;53.254;6.460;2023-07-09T09:14:00;30.80;99.90
51637;DHT22;37713;53.254;6.460;2023-07-09T09:16:30;30.60;99.90
51637;DHT22;37713;53.254;6.460;2023-07-09T09:18:58;30.60;99.90
51637;DHT22;37713;53.254;6.460;2023-07-09T09:21:28;30.70;99.90
51637;DHT22;37713;53.254;6.460;2023-07-09T09:23:58;30.70;99.90
51637;DHT22;37713;53.254;6.460;2023-07-09T09:26:34;30.50;99.90
51637;DHT22;37713;53.254;6.460;2023-07-09T09:29:11;30.50;99.90
51637;DHT22;37713;53.254;6.460;2023-07-09T09:31:37;30.50;99.90
51637;DHT22;37713;53.254;6.460;2023-07-09T09:34:03;30.50;99.90
51637;DHT22;37713;53.254;6.460;2023-07-09T09:36:31;30.40;99.90
51637;DHT22;37713;53.254;6.460;2023-07-09T09:39:02;30.40;99.90
51637;DHT22;37713;53.254;6.460;2023-07-09T09:41:34;30.40;99.90
51637;DHT22;37713;53.254;6.460;2023-07-09T09:44:01;30.40;99.90
51637;DHT22;37713;53.254;6.460;2023-07-09T09:46:28;30.30;99.90
51637;DHT22;37713;53.254;6.460;2023-07-09T09:48:56;30.20;99.90
51637;DHT22;37713;53.254;6.460;2023-07-09T09:51:23;30.20;99.90
51637;DHT22;37713;53.254;6.460;2023-07-09T09:53:51;30.10;99.90
51637;DHT22;37713;53.254;6.460;2023-07-09T09:56:25;30.10;99.90
51637;DHT22;37713;53.254;6.460;2023-07-09T09:58:55;30.00;99.90
51637;DHT22;37713;53.254;6.460;2023-07-09T10:01:29;30.10;99.90
51637;DHT22;37713;53.254;6.460;2023-07-09T10:03:57;30.00;99.90
51637;DHT22;37713;53.254;6.460;2023-07-09T10:06:33;30.00;99.90
51637;DHT22;37713;53.254;6.460;2023-07-09T10:09:15;30.00;99.90
51637;DHT22;37713;53.254;6.460;2023-07-09T10:14:32;30.10;99.90
51637;DHT22;37713;53.254;6.460;2023-07-09T10:20:16;29.90;99.90
51637;DHT22;37713;53.254;6.460;2023-07-09T10:31:11;29.80;99.90
51637;DHT22;37713;53.254;6.460;2023-07-09T10:39:38;29.80;99.90
51637;DHT22;37713;53.254;6.460;2023-07-09T10:42:12;29.70;99.90
51637;DHT22;37713;53.254;6.460;2023-07-09T10:44:43;29.80;99.90
51637;DHT22;37713;53.254;6.460;2023-07-09T10:47:30;29.80;99.90
51637;DHT22;37713;53.254;6.460;2023-07-09T10:49:58;29.80;99.90
51637;DHT22;37713;53.254;6.460;2023-07-09T10:52:26;29.70;99.90
51637;DHT22;37713;53.254;6.460;2023-07-09T10:57:46;29.90;99.90
51637;DHT22;37713;53.254;6.460;2023-07-09T11:00:19;29.90;99.90
51637;DHT22;37713;53.254;6.460;2023-07-09T11:02:48;30.00;99.90
51637;DHT22;37713;53.254;6.460;2023-07-09T11:05:16;29.90;99.90
51637;DHT22;37713;53.254;6.460;2023-07-09T11:07:48;29.90;98.70
51637;DHT22;37713;53.254;6.460;2023-07-09T11:10:41;29.80;97.90
51637;DHT22;37713;53.254;6.460;2023-07-09T11:13:15;29.80;97.80
51637;DHT22;37713;53.254;6.460;2023-07-09T11:15:46;29.70;97.30
51637;DHT22;37713;53.254;6.460;2023-07-09T11:18:22;29.60;97.00
51637;DHT22;37713;53.254;6.460;2023-07-09T11:20:58;29.50;97.80
51637;DHT22;37713;53.254;6.460;2023-07-09T11:23:25;29.50;97.80
51637;DHT22;37713;53.254;6.460;2023-07-09T11:29:14;29.60;98.70
51637;DHT22;37713;53.254;6.460;2023-07-09T11:31:41;29.70;99.00
51637;DHT22;37713;53.254;6.460;2023-07-09T11:34:16;29.70;98.80
51637;DHT22;37713;53.254;6.460;2023-07-09T11:39:29;29.80;99.60
51637;DHT22;37713;53.254;6.460;2023-07-09T11:41:56;29.90;99.10
51637;DHT22;37713;53.254;6.460;2023-07-09T11:44:25;29.80;99.10
51637;DHT22;37713;53.254;6.460;2023-07-09T11:47:14;29.80;99.00
51637;DHT22;37713;53.254;6.460;2023-07-09T11:50:17;29.80;98.90
51637;DHT22;37713;53.254;6.460;2023-07-09T11:55:41;29.90;97.20
51637;DHT22;37713;53.254;6.460;2023-07-09T11:58:17;29.90;95.90
51637;DHT22;37713;53.254;6.460;2023-07-09T12:00:55;29.80;95.80
51637;DHT22;37713;53.254;6.460;2023-07-09T12:03:27;29.80;95.10
51637;DHT22;37713;53.254;6.460;2023-07-09T12:05:55;29.80;94.60
51637;DHT22;37713;53.254;6.460;2023-07-09T12:11:01;29.80;94.60
51637;DHT22;37713;53.254;6.460;2023-07-09T12:13:26;29.90;94.50
51637;DHT22;37713;53.254;6.460;2023-07-09T12:15:52;29.80;93.90
51637;DHT22;37713;53.254;6.460;2023-07-09T12:18:18;29.90;93.90
51637;DHT22;37713;53.254;6.460;2023-07-09T12:20:52;29.90;93.70
51637;DHT22;37713;53.254;6.460;2023-07-09T12:23:30;30.00;93.90
51637;DHT22;37713;53.254;6.460;2023-07-09T12:26:02;29.90;93.20
51637;DHT22;37713;53.254;6.460;2023-07-09T12:28:29;30.00;94.60
51637;DHT22;37713;53.254;6.460;2023-07-09T12:30:55;30.10;94.40
51637;DHT22;37713;53.254;6.460;2023-07-09T12:33:26;30.00;93.30
51637;DHT22;37713;53.254;6.460;2023-07-09T12:35:58;30.00;92.40
51637;DHT22;37713;53.254;6.460;2023-07-09T12:38:27;29.90;93.20
51637;DHT22;37713;53.254;6.460;2023-07-09T12:40:55;29.90;92.60
51637;DHT22;37713;53.254;6.460;2023-07-09T12:43:30;30.10;92.90
51637;DHT22;37713;53.254;6.460;2023-07-09T12:45:58;30.20;93.80
51637;DHT22;37713;53.254;6.460;2023-07-09T12:48:27;30.20;93.10
51637;DHT22;37713;53.254;6.460;2023-07-09T12:50:56;30.10;92.80
51637;DHT22;37713;53.254;6.460;2023-07-09T12:53:25;30.20;93.60
51637;DHT22;37713;53.254;6.460;2023-07-09T12:55:58;30.10;93.00
51637;DHT22;37713;53.254;6.460;2023-07-09T12:58:28;30.10;92.60
51637;DHT22;37713;53.254;6.460;2023-07-09T13:00:56;30.10;92.50
51637;DHT22;37713;53.254;6.460;2023-07-09T13:03:29;30.00;92.40
51637;DHT22;37713;53.254;6.460;2023-07-09T13:06:01;29.90;92.90
51637;DHT22;37713;53.254;6.460;2023-07-09T13:08:31;29.90;92.90
51637;DHT22;37713;53.254;6.460;2023-07-09T13:11:00;29.90;93.00
51637;DHT22;37713;53.254;6.460;2023-07-09T13:13:26;29.90;93.30
51637;DHT22;37713;53.254;6.460;2023-07-09T13:15:57;29.90;93.40
51637;DHT22;37713;53.254;6.460;2023-07-09T13:18:26;30.10;94.00
51637;DHT22;37713;53.254;6.460;2023-07-09T13:20:55;30.10;93.50
51637;DHT22;37713;53.254;6.460;2023-07-09T13:23:29;30.00;93.60
51637;DHT22;37713;53.254;6.460;2023-07-09T13:25:58;29.90;94.00
51637;DHT22;37713;53.254;6.460;2023-07-09T13:28:29;29.90;94.20
51637;DHT22;37713;53.254;6.460;2023-07-09T13:31:10;30.00;94.50
51637;DHT22;37713;53.254;6.460;2023-07-09T13:33:37;30.10;94.30
51637;DHT22;37713;53.254;6.460;2023-07-09T13:36:03;30.10;94.80
51637;DHT22;37713;53.254;6.460;2023-07-09T13:38:29;30.10;94.50
51637;DHT22;37713;53.254;6.460;2023-07-09T13:40:57;30.20;94.30
51637;DHT22;37713;53.254;6.460;2023-07-09T13:43:31;30.30;94.70
51637;DHT22;37713;53.254;6.460;2023-07-09T13:45:59;30.40;95.30
51637;DHT22;37713;53.254;6.460;2023-07-09T13:48:26;30.60;95.50
51637;DHT22;37713;53.254;6.460;2023-07-09T13:50:53;30.70;95.30
51637;DHT22;37713;53.254;6.460;2023-07-09T13:53:23;30.70;95.60
51637;DHT22;37713;53.254;6.460;2023-07-09T13:55:49;30.60;95.10
51637;DHT22;37713;53.254;6.460;2023-07-09T13:58:19;30.40;94.60
51637;DHT22;37713;53.254;6.460;2023-07-09T14:00:47;30.20;94.80
51637;DHT22;37713;53.254;6.460;2023-07-09T14:03:27;30.10;95.30
51637;DHT22;37713;53.254;6.460;2023-07-09T14:05:54;30.10;95.60
51637;DHT22;37713;53.254;6.460;2023-07-09T14:08:21;30.20;94.90
51637;DHT22;37713;53.254;6.460;2023-07-09T14:10:47;30.10;95.10
51637;DHT22;37713;53.254;6.460;2023-07-09T14:13:17;30.10;95.10
51637;DHT22;37713;53.254;6.460;2023-07-09T14:15:43;30.20;96.10
51637;DHT22;37713;53.254;6.460;2023-07-09T14:18:18;30.20;95.70
51637;DHT22;37713;53.254;6.460;2023-07-09T14:20:44;30.20;95.20
51637;DHT22;37713;53.254;6.460;2023-07-09T14:23:12;29.90;95.50
51637;DHT22;37713;53.254;6.460;2023-07-09T14:25:39;29.90;95.90
51637;DHT22;37713;53.254;6.460;2023-07-09T14:28:12;29.70;96.20
51637;DHT22;37713;53.254;6.460;2023-07-09T14:30:38;29.60;96.90
51637;DHT22;37713;53.254;6.460;2023-07-09T14:33:11;29.40;97.30
51637;DHT22;37713;53.254;6.460;2023-07-09T14:35:37;29.30;97.20
51637;DHT22;37713;53.254;6.460;2023-07-09T14:38:06;29.10;97.30
51637;DHT22;37713;53.254;6.460;2023-07-09T14:40:39;29.00;97.40
51637;DHT22;37713;53.254;6.460;2023-07-09T14:43:09;28.90;97.40
51637;DHT22;37713;53.254;6.460;2023-07-09T14:45:36;28.70;97.10
51637;DHT22;37713;53.254;6.460;2023-07-09T14:48:04;28.60;97.10
51637;DHT22;37713;53.254;6.460;2023-07-09T14:50:34;28.50;97.30
51637;DHT22;37713;53.254;6.460;2023-07-09T14:52:59;28.20;98.30
51637;DHT22;37713;53.254;6.460;2023-07-09T14:55:25;28.00;99.40
51637;DHT22;37713;53.254;6.460;2023-07-09T14:57:51;27.70;99.90
51637;DHT22;37713;53.254;6.460;2023-07-09T15:00:19;27.50;99.90
51637;DHT22;37713;53.254;6.460;2023-07-09T15:02:50;27.40;99.90
51637;DHT22;37713;53.254;6.460;2023-07-09T15:05:24;27.10;99.90
51637;DHT22;37713;53.254;6.460;2023-07-09T15:07:51;26.90;99.90
51637;DHT22;37713;53.254;6.460;2023-07-09T15:10:25;26.70;99.90
51637;DHT22;37713;53.254;6.460;2023-07-09T15:12:53;26.40;99.90
51637;DHT22;37713;53.254;6.460;2023-07-09T15:15:26;26.10;99.90
51637;DHT22;37713;53.254;6.460;2023-07-09T15:17:53;25.80;99.90
51637;DHT22;37713;53.254;6.460;2023-07-09T15:20:23;25.40;99.90
51637;DHT22;37713;53.254;6.460;2023-07-09T15:22:50;25.20;99.90
51637;DHT22;37713;53.254;6.460;2023-07-09T15:25:22;25.00;99.90
51637;DHT22;37713;53.254;6.460;2023-07-09T15:27:49;24.80;99.90
51637;DHT22;37713;53.254;6.460;2023-07-09T15:30:28;24.60;99.90
51637;DHT22;37713;53.254;6.460;2023-07-09T15:32:56;24.50;99.90
51637;DHT22;37713;53.254;6.460;2023-07-09T15:35:23;24.30;99.90
51637;DHT22;37713;53.254;6.460;2023-07-09T15:37:50;24.20;99.90
51637;DHT22;37713;53.254;6.460;2023-07-09T15:40:27;24.10;99.90
51637;DHT22;37713;53.254;6.460;2023-07-09T15:43:00;24.00;99.90
51637;DHT22;37713;53.254;6.460;2023-07-09T15:45:31;23.90;99.90
51637;DHT22;37713;53.254;6.460;2023-07-09T15:47:57;23.70;99.90
51637;DHT22;37713;53.254;6.460;2023-07-09T15:50:26;23.60;99.90
51637;DHT22;37713;53.254;6.460;2023-07-09T15:52:53;23.40;99.90
51637;DHT22;37713;53.254;6.460;2023-07-09T15:55:24;23.10;99.90
51637;DHT22;37713;53.254;6.460;2023-07-09T15:57:52;23.00;99.90
51637;DHT22;37713;53.254;6.460;2023-07-09T16:00:27;22.90;99.90
51637;DHT22;37713;53.254;6.460;2023-07-09T16:02:54;22.80;99.90
51637;DHT22;37713;53.254;6.460;2023-07-09T16:05:24;22.60;99.90
51637;DHT22;37713;53.254;6.460;2023-07-09T16:07:52;22.50;99.90
51637;DHT22;37713;53.254;6.460;2023-07-09T16:10:19;22.40;99.90
51637;DHT22;37713;53.254;6.460;2023-07-09T16:12:46;22.00;99.90
51637;DHT22;37713;53.254;6.460;2023-07-09T16:15:19;22.00;99.90
51637;DHT22;37713;53.254;6.460;2023-07-09T16:17:47;21.80;99.90
51637;DHT22;37713;53.254;6.460;2023-07-09T16:20:19;21.60;99.90
51637;DHT22;37713;53.254;6.460;2023-07-09T16:22:50;21.40;99.90
51637;DHT22;37713;53.254;6.460;2023-07-09T16:25:19;21.20;99.90
51637;DHT22;37713;53.254;6.460;2023-07-09T16:27:46;21.00;99.90
51637;DHT22;37713;53.254;6.460;2023-07-09T16:30:14;20.90;99.90
51637;DHT22;37713;53.254;6.460;2023-07-09T16:32:41;20.80;99.90
51637;DHT22;37713;53.254;6.460;2023-07-09T16:35:15;20.80;99.90